Aérodrome :
LOGIN :

S'inscrire | Disclaimer

   EN    FR    IT 

 










Légende :    VFR   VFR Marginal   IFR   IFR Intensif   IFR Très Intensif
Visi : 
Plafond : 
>= 8 km
>= 3000ft
5 à 8 km
1000 à 3000 ft
1500m à 5 km
500 à 1000 ft
800 à 1500m
200 à 500 ft
< 800m
< 200 ft
Symboles :   Orages  Brouillard  Fortes neiges  Fortes précipitations  Vent > 20 kt
SIGMETs :   Divers  Orages  Givrage  Turbulence  Onde Orograph.  Cendres Volcan.






- Altitude de l'aérodrome : 268 ft
- Code IATA : BFS


EGAA - Belfast Aldergrove

DERNIER METAR :
  • 180550Z 14003KT CAVOK M03/M03 Q1019

METARs EXPIRÉS :
  • 180520Z 12002KT CAVOK M04/M04 Q1020
  • 180450Z 13002KT CAVOK M05/M05 Q1020
  • 180420Z 16003KT CAVOK M03/M03 Q1020
  • 180350Z 16002KT CAVOK M03/M03 Q1020
  • 180320Z AUTO 18002KT 9999 NCD M03/M03 Q1020

TAF TAF EGAA
Valide du 18 à 06h jusqu'au 19 à 06h UTC


180501Z 1806/1906 VRB03KT 9999 FEW030
PROB30 1806/1812 0200 FG FZFG BKN000
PROB30 1812/1815 5000 BR
PROB30 1818/1824 7000
BECMG 1822/1902 14010KT



MET'MAP, la Météo Aéronautique d'un coup d'oeil ! - Copyright ORBIFLY Décembre 2007 - Disclaimer

ORBIFLY MET'MAP TEAM :

Programmation & Développement : Alexandra Zaïnal
Conception & Développement : Baudouin d'Aumeries
Co-Programmation & Développement : Marc-Olivier Méhu
Soutien technique & logistique : Manuel Goepfert

Contact : metmap@orbifly.com




SOURCES & CREDITS :

   NOAA